Terminal Aerodrome Forecast
Issued by NWS Knoxville/Tri Cities, TN

Home | Current Version | Previous Version | Text Only | Print | Product List | Glossary On
Versions: 1 2 3 4 5 6 7 8 9 10 11 12
000
FTUS44 KMRX 191120
TAFCHA
TAF
KCHA 191120Z 1912/2012 01003KT P6SM SCT060 OVC100
     FM191900 02010KT P6SM SCT100 BKN200
     FM192300 VRB03KT P6SM SCT100=

USA.gov is the U.S. government's official web portal to all federal, state and local government web resources and services.